Relevés horaires Eggishorn (Suisse)


Relevés horaires à Eggishorn - Lundi 07 Oct. 2019
Heure UTC1 Température [°C] Vent [km/h] Hum. [%] Pres.4 [hPa] Visi. [Km] Nébu. [octa] Préc.5 [mm] Cond.
2m. Res. Ros. Dir.2 Vit. Moy. Raf.3
23:00 2.8 -1.8 -16.6 N 20.4 -- 33.3 22 700(0.3/3h) -- -- -- --
22:00 2.6 -0 -17.6 O 9.3 -- 20.4 21 700(0.8/3h) -- -- -- --
21:00 1.4 -1.5 -15.9 NO 9.3 -- 29.6 26 700(0.7/3h) -- -- -- --
20:00 1.7 -2.9 -16.9 NNO 18.5 -- 24.1 24 700(0.8/3h) -- -- -- --
19:00 -0.1 -2.7 -14.3 NNO 7.4 -- 20.4 33 700(0.4/3h) -- -- -- --
18:00 -2.1 -6.6 -8.7 O 13.0 -- 24.1 60 700(0.5/3h) -- -- -- --
17:00 -1.3 -4.1 -10.4 O 7.4 -- 13.0 50 700(0.7/3h) -- -- -- --
16:00 -3.3 -5.6 -3.6 ONO 5.6 -- 14.8 98 700(1.1/3h) -- -- -- --
15:00 -1.8 -3.9 -2.5 ONO 5.6 -- 13.0 95 700(0.9/3h) -- -- -- --
14:00 -2.7 -2.7 -3.0 O 1.9 -- 11.1 98 700(0.6/3h) -- -- -- --
13:00 -3.5 -3.5 -3.5 S 3.7 -- 13.0 100 700(0.7/3h) -- -- -- --
12:00 -3.9 -3.9 -4.5 NO 1.9 -- 18.5 96 700(1.5/3h) -- -- -- --
11:00 -4.1 -4.1 -4.2 NO 3.7 -- 16.7 99 700(1.7/3h) -- -- -- --
10:00 -4.1 -4.1 -4.8 S 3.7 -- 13.0 95 700(1.6/3h) -- -- -- --
09:00 -5.3 -7.9 -5.6 ESE 5.6 -- 18.5 98 700(1.4/3h) -- -- -- --
08:00 -6.0 -6.0 -6.0 SE 3.7 -- 14.8 100 700(1.9/3h) -- -- -- --
07:00 -6.7 -11.7 -6.9 E 11.1 -- 18.5 98 700(1.9/3h) -- -- -- --
06:00 -7.1 -10 -8.2 SE 5.6 -- 70.4 92 700(1.4/3h) -- -- -- --
05:00 -6.7 -10.4 -6.7 ESE 7.4 -- 55.6 100 700(0.6/3h) -- -- -- --
04:00 -6.6 -14.8 -8.7 NNO 27.8 -- 51.9 85 700(0.3/3h) -- -- -- --
03:00 -5.6 -13.5 -7.7 N 27.8 -- 70.4 85 700(-0.2/3h) -- -- -- --
02:00 -4.7 -13.2 -7.6 NNO 35.2 -- 70.4 80 700(0.2/3h) -- -- -- --
01:00 -5.0 -14.1 -5.3 NNO 40.7 -- 64.8 98 700(-0.1/3h) -- -- -- --
00:00 -4.4 -14.1 -6.3 NNO 50.0 -- 92.6 87 700(-0.5/3h) -- -- -- --

1 Coordinated Universal Time. Actuellement il est 17:00 locale et 15:00 UTC.

2 Le vent souffle depuis la direction indiquée vers la direction oposée.

3 Les rafales max. sont disponible 40 min après l'heure du relevé.

4 Pour les stations d'altitude (plus de 600m) le géopotentiel du niveau le plus proche de la pression obligatoire est indiqué.

5 Les stations disposant d'un diffuseur peuvent indiquer "trace". Cela signifie que des précipitations ont touchés le sol mais que la quantité est inférieure à 0.1 mm.

Copyright

Les données affichées sur cette page sont la propriété exclusive de Météo Suisse.

Récapitulatif de la journée
Température [°C] Vent [km/h] Ensoleillement4 [h] Precipitations totale5 [mm] Pression [Hpa]
Min1 Max.2 Moy.3 Max. Min Max.
-6.7 -1.3 0 92.6 7 h 18 min 0 700.0 700.0

1 Température minimale relevée entre 18:00 UTC la veille et 18:00 UTC le jour donné.

2 Température maximale relevée entre 06:00 UTC le jour donné et 06:00 UTC le lendemain.

3 Vent moyen de la journée basé sur les relevés horaires.

4 Ensoleillement en heures relevé entre 06:00 UTC la veille et 06:00 UTC le jour donné.

5 Précipitations totales tombées entre 06:00 UTC la jour donné et 06:00 UTC le lendemain.

Graphiques horaires